sensor_id;sensor_type;location;lat;lon;timestamp;temperature;humidity
3348;DHT22;1687;49.540;8.574;2022-12-18T00:01:23;-3.80;85.90
3348;DHT22;1687;49.540;8.574;2022-12-18T00:03:50;-3.90;85.70
3348;DHT22;1687;49.540;8.574;2022-12-18T00:06:17;-3.90;85.50
3348;DHT22;1687;49.540;8.574;2022-12-18T00:08:43;-4.00;85.90
3348;DHT22;1687;49.540;8.574;2022-12-18T00:11:14;-4.00;86.20
3348;DHT22;1687;49.540;8.574;2022-12-18T00:13:40;-3.90;86.20
3348;DHT22;1687;49.540;8.574;2022-12-18T00:16:08;-3.90;86.40
3348;DHT22;1687;49.540;8.574;2022-12-18T00:18:34;-3.80;87.30
3348;DHT22;1687;49.540;8.574;2022-12-18T00:21:01;-3.80;87.00
3348;DHT22;1687;49.540;8.574;2022-12-18T00:23:28;-3.80;86.80
3348;DHT22;1687;49.540;8.574;2022-12-18T00:25:58;-3.80;87.00
3348;DHT22;1687;49.540;8.574;2022-12-18T00:28:23;-3.70;87.30
3348;DHT22;1687;49.540;8.574;2022-12-18T00:30:49;-3.70;86.60
3348;DHT22;1687;49.540;8.574;2022-12-18T00:33:17;-3.70;87.00
3348;DHT22;1687;49.540;8.574;2022-12-18T00:35:42;-3.80;85.80
3348;DHT22;1687;49.540;8.574;2022-12-18T00:38:08;-4.00;85.10
3348;DHT22;1687;49.540;8.574;2022-12-18T00:40:34;-4.20;84.80
3348;DHT22;1687;49.540;8.574;2022-12-18T00:42:59;-4.20;85.70
3348;DHT22;1687;49.540;8.574;2022-12-18T00:45:27;-4.20;86.10
3348;DHT22;1687;49.540;8.574;2022-12-18T00:47:53;-4.20;86.00
3348;DHT22;1687;49.540;8.574;2022-12-18T00:50:19;-4.30;85.30
3348;DHT22;1687;49.540;8.574;2022-12-18T00:52:45;-4.30;85.80
3348;DHT22;1687;49.540;8.574;2022-12-18T00:55:12;-4.30;86.10
3348;DHT22;1687;49.540;8.574;2022-12-18T00:57:37;-4.50;85.10
3348;DHT22;1687;49.540;8.574;2022-12-18T01:00:05;-4.50;85.20
3348;DHT22;1687;49.540;8.574;2022-12-18T01:02:31;-4.50;86.00
3348;DHT22;1687;49.540;8.574;2022-12-18T01:04:57;-4.50;86.10
3348;DHT22;1687;49.540;8.574;2022-12-18T01:07:22;-4.40;86.60
3348;DHT22;1687;49.540;8.574;2022-12-18T01:09:48;-4.40;86.50
3348;DHT22;1687;49.540;8.574;2022-12-18T01:12:13;-4.30;86.60
3348;DHT22;1687;49.540;8.574;2022-12-18T01:14:39;-4.40;86.10
3348;DHT22;1687;49.540;8.574;2022-12-18T01:17:04;-4.40;85.80
3348;DHT22;1687;49.540;8.574;2022-12-18T01:19:30;-4.50;85.50
3348;DHT22;1687;49.540;8.574;2022-12-18T01:21:56;-4.60;85.70
3348;DHT22;1687;49.540;8.574;2022-12-18T01:24:21;-4.50;85.90
3348;DHT22;1687;49.540;8.574;2022-12-18T01:26:47;-4.60;85.70
3348;DHT22;1687;49.540;8.574;2022-12-18T01:29:12;-4.70;85.30
3348;DHT22;1687;49.540;8.574;2022-12-18T01:31:38;-4.80;84.40
3348;DHT22;1687;49.540;8.574;2022-12-18T01:34:04;-4.90;85.00
3348;DHT22;1687;49.540;8.574;2022-12-18T01:36:32;-5.00;84.90
3348;DHT22;1687;49.540;8.574;2022-12-18T01:39:04;-5.00;84.60
3348;DHT22;1687;49.540;8.574;2022-12-18T01:41:31;-5.00;85.80
3348;DHT22;1687;49.540;8.574;2022-12-18T01:47:38;-4.80;86.60
3348;DHT22;1687;49.540;8.574;2022-12-18T01:55:28;-4.60;86.30
3348;DHT22;1687;49.540;8.574;2022-12-18T01:57:57;-4.60;86.30
3348;DHT22;1687;49.540;8.574;2022-12-18T02:00:24;-4.60;85.70
3348;DHT22;1687;49.540;8.574;2022-12-18T02:02:50;-4.70;85.40
3348;DHT22;1687;49.540;8.574;2022-12-18T02:05:19;-4.70;86.20
3348;DHT22;1687;49.540;8.574;2022-12-18T02:08:15;-4.70;86.40
3348;DHT22;1687;49.540;8.574;2022-12-18T02:10:57;-4.70;85.10
3348;DHT22;1687;49.540;8.574;2022-12-18T02:16:39;-5.00;85.40
3348;DHT22;1687;49.540;8.574;2022-12-18T02:19:00;-5.00;85.60
3348;DHT22;1687;49.540;8.574;2022-12-18T02:21:49;-5.10;84.80
3348;DHT22;1687;49.540;8.574;2022-12-18T02:27:11;-5.20;84.80
3348;DHT22;1687;49.540;8.574;2022-12-18T02:29:46;-5.20;86.00
3348;DHT22;1687;49.540;8.574;2022-12-18T02:32:16;-5.20;84.80
3348;DHT22;1687;49.540;8.574;2022-12-18T02:34:44;-5.30;85.00
3348;DHT22;1687;49.540;8.574;2022-12-18T02:37:13;-5.30;84.80
3348;DHT22;1687;49.540;8.574;2022-12-18T02:39:42;-5.20;85.90
3348;DHT22;1687;49.540;8.574;2022-12-18T02:42:09;-5.30;85.30
3348;DHT22;1687;49.540;8.574;2022-12-18T02:44:43;-5.20;85.90
3348;DHT22;1687;49.540;8.574;2022-12-18T02:47:11;-5.30;85.30
3348;DHT22;1687;49.540;8.574;2022-12-18T02:49:44;-5.20;86.50
3348;DHT22;1687;49.540;8.574;2022-12-18T02:55:13;-5.20;85.20
3348;DHT22;1687;49.540;8.574;2022-12-18T02:57:58;-5.20;85.20
3348;DHT22;1687;49.540;8.574;2022-12-18T03:01:19;-5.20;86.30
3348;DHT22;1687;49.540;8.574;2022-12-18T03:06:55;-5.00;86.20
3348;DHT22;1687;49.540;8.574;2022-12-18T03:09:20;-5.00;85.90
3348;DHT22;1687;49.540;8.574;2022-12-18T03:11:53;-5.20;85.40
3348;DHT22;1687;49.540;8.574;2022-12-18T03:14:40;-5.30;85.00
3348;DHT22;1687;49.540;8.574;2022-12-18T03:17:11;-5.40;84.70
3348;DHT22;1687;49.540;8.574;2022-12-18T03:19:39;-5.50;84.90
3348;DHT22;1687;49.540;8.574;2022-12-18T03:22:07;-5.60;84.90
3348;DHT22;1687;49.540;8.574;2022-12-18T03:24:35;-5.50;86.00
3348;DHT22;1687;49.540;8.574;2022-12-18T03:27:10;-5.50;85.80
3348;DHT22;1687;49.540;8.574;2022-12-18T03:29:40;-5.40;85.70
3348;DHT22;1687;49.540;8.574;2022-12-18T03:32:13;-5.50;85.40
3348;DHT22;1687;49.540;8.574;2022-12-18T03:34:42;-5.40;86.30
3348;DHT22;1687;49.540;8.574;2022-12-18T03:37:09;-5.40;86.00
3348;DHT22;1687;49.540;8.574;2022-12-18T03:39:35;-5.40;85.80
3348;DHT22;1687;49.540;8.574;2022-12-18T03:42:32;-5.40;85.40
3348;DHT22;1687;49.540;8.574;2022-12-18T03:45:20;-5.50;85.70
3348;DHT22;1687;49.540;8.574;2022-12-18T03:48:11;-5.40;86.10
3348;DHT22;1687;49.540;8.574;2022-12-18T03:50:49;-5.40;84.90
3348;DHT22;1687;49.540;8.574;2022-12-18T03:56:12;-5.40;85.50
3348;DHT22;1687;49.540;8.574;2022-12-18T03:58:40;-5.40;85.80
3348;DHT22;1687;49.540;8.574;2022-12-18T04:01:08;-5.50;84.60
3348;DHT22;1687;49.540;8.574;2022-12-18T04:03:35;-5.60;85.30
3348;DHT22;1687;49.540;8.574;2022-12-18T04:06:02;-5.50;85.90
3348;DHT22;1687;49.540;8.574;2022-12-18T04:08:28;-5.50;85.50
3348;DHT22;1687;49.540;8.574;2022-12-18T04:10:54;-5.60;84.80
3348;DHT22;1687;49.540;8.574;2022-12-18T04:13:39;-5.50;85.90
3348;DHT22;1687;49.540;8.574;2022-12-18T04:16:05;-5.50;86.10
3348;DHT22;1687;49.540;8.574;2022-12-18T04:18:31;-5.50;85.80
3348;DHT22;1687;49.540;8.574;2022-12-18T04:20:56;-5.50;85.30
3348;DHT22;1687;49.540;8.574;2022-12-18T04:23:22;-5.50;85.20
3348;DHT22;1687;49.540;8.574;2022-12-18T04:25:47;-5.60;85.60
3348;DHT22;1687;49.540;8.574;2022-12-18T04:28:13;-5.50;86.40
3348;DHT22;1687;49.540;8.574;2022-12-18T04:30:38;-5.40;86.10
3348;DHT22;1687;49.540;8.574;2022-12-18T04:33:09;-5.40;85.90
3348;DHT22;1687;49.540;8.574;2022-12-18T04:35:35;-5.40;85.60
3348;DHT22;1687;49.540;8.574;2022-12-18T04:38:00;-5.40;85.20
3348;DHT22;1687;49.540;8.574;2022-12-18T04:40:26;-5.50;85.40
3348;DHT22;1687;49.540;8.574;2022-12-18T04:42:51;-5.50;85.60
3348;DHT22;1687;49.540;8.574;2022-12-18T04:45:17;-5.50;85.80
3348;DHT22;1687;49.540;8.574;2022-12-18T04:47:42;-5.50;85.20
3348;DHT22;1687;49.540;8.574;2022-12-18T04:50:08;-5.60;84.90
3348;DHT22;1687;49.540;8.574;2022-12-18T04:52:34;-5.70;84.60
3348;DHT22;1687;49.540;8.574;2022-12-18T04:54:59;-5.70;85.30
3348;DHT22;1687;49.540;8.574;2022-12-18T04:57:25;-5.70;85.30
3348;DHT22;1687;49.540;8.574;2022-12-18T04:59:51;-5.60;85.70
3348;DHT22;1687;49.540;8.574;2022-12-18T05:02:16;-5.60;85.60
3348;DHT22;1687;49.540;8.574;2022-12-18T05:04:42;-5.70;84.10
3348;DHT22;1687;49.540;8.574;2022-12-18T05:07:07;-5.80;84.40
3348;DHT22;1687;49.540;8.574;2022-12-18T05:09:33;-5.90;84.50
3348;DHT22;1687;49.540;8.574;2022-12-18T05:11:58;-6.00;84.20
3348;DHT22;1687;49.540;8.574;2022-12-18T05:14:24;-6.00;84.60
3348;DHT22;1687;49.540;8.574;2022-12-18T05:16:49;-6.10;84.60
3348;DHT22;1687;49.540;8.574;2022-12-18T05:19:15;-6.00;85.80
3348;DHT22;1687;49.540;8.574;2022-12-18T05:21:41;-5.80;86.30
3348;DHT22;1687;49.540;8.574;2022-12-18T05:24:06;-5.70;86.20
3348;DHT22;1687;49.540;8.574;2022-12-18T05:26:32;-5.70;86.30
3348;DHT22;1687;49.540;8.574;2022-12-18T05:28:57;-5.70;85.30
3348;DHT22;1687;49.540;8.574;2022-12-18T05:31:23;-5.70;85.80
3348;DHT22;1687;49.540;8.574;2022-12-18T05:33:48;-5.70;85.30
3348;DHT22;1687;49.540;8.574;2022-12-18T05:36:14;-5.70;85.80
3348;DHT22;1687;49.540;8.574;2022-12-18T05:38:40;-5.60;86.20
3348;DHT22;1687;49.540;8.574;2022-12-18T05:41:06;-5.50;86.60
3348;DHT22;1687;49.540;8.574;2022-12-18T05:43:34;-5.50;86.00
3348;DHT22;1687;49.540;8.574;2022-12-18T05:46:10;-5.40;86.20
3348;DHT22;1687;49.540;8.574;2022-12-18T05:48:36;-5.40;86.40
3348;DHT22;1687;49.540;8.574;2022-12-18T05:51:06;-5.30;86.20
3348;DHT22;1687;49.540;8.574;2022-12-18T05:53:33;-5.20;86.60
3348;DHT22;1687;49.540;8.574;2022-12-18T05:56:06;-5.20;86.30
3348;DHT22;1687;49.540;8.574;2022-12-18T05:58:33;-5.10;86.40
3348;DHT22;1687;49.540;8.574;2022-12-18T06:01:06;-5.10;86.40
3348;DHT22;1687;49.540;8.574;2022-12-18T06:03:32;-5.10;86.60
3348;DHT22;1687;49.540;8.574;2022-12-18T06:05:58;-5.00;86.60
3348;DHT22;1687;49.540;8.574;2022-12-18T06:08:23;-5.00;86.10
3348;DHT22;1687;49.540;8.574;2022-12-18T06:10:50;-5.00;86.40
3348;DHT22;1687;49.540;8.574;2022-12-18T06:13:17;-4.90;86.60
3348;DHT22;1687;49.540;8.574;2022-12-18T06:15:42;-4.90;85.70
3348;DHT22;1687;49.540;8.574;2022-12-18T06:18:08;-4.90;86.30
3348;DHT22;1687;49.540;8.574;2022-12-18T06:20:33;-4.90;85.90
3348;DHT22;1687;49.540;8.574;2022-12-18T06:23:01;-5.00;85.80
3348;DHT22;1687;49.540;8.574;2022-12-18T06:25:27;-5.00;86.10
3348;DHT22;1687;49.540;8.574;2022-12-18T06:27:52;-4.90;86.20
3348;DHT22;1687;49.540;8.574;2022-12-18T06:30:18;-4.90;85.80
3348;DHT22;1687;49.540;8.574;2022-12-18T06:32:44;-5.00;86.10
3348;DHT22;1687;49.540;8.574;2022-12-18T06:35:10;-4.90;86.50
3348;DHT22;1687;49.540;8.574;2022-12-18T06:37:35;-4.90;85.90
3348;DHT22;1687;49.540;8.574;2022-12-18T06:40:01;-4.90;86.10
3348;DHT22;1687;49.540;8.574;2022-12-18T06:42:26;-4.90;85.80
3348;DHT22;1687;49.540;8.574;2022-12-18T06:44:53;-4.90;86.50
3348;DHT22;1687;49.540;8.574;2022-12-18T06:47:19;-4.80;86.90
3348;DHT22;1687;49.540;8.574;2022-12-18T06:49:44;-4.60;87.20
3348;DHT22;1687;49.540;8.574;2022-12-18T06:52:10;-4.50;87.30
3348;DHT22;1687;49.540;8.574;2022-12-18T06:54:35;-4.40;87.10
3348;DHT22;1687;49.540;8.574;2022-12-18T06:57:01;-4.40;85.90
3348;DHT22;1687;49.540;8.574;2022-12-18T06:59:26;-4.60;85.70
3348;DHT22;1687;49.540;8.574;2022-12-18T07:01:52;-4.60;86.60
3348;DHT22;1687;49.540;8.574;2022-12-18T07:04:17;-4.50;86.60
3348;DHT22;1687;49.540;8.574;2022-12-18T07:06:43;-4.50;86.60
3348;DHT22;1687;49.540;8.574;2022-12-18T07:09:08;-4.50;86.20
3348;DHT22;1687;49.540;8.574;2022-12-18T07:11:34;-4.40;86.70
3348;DHT22;1687;49.540;8.574;2022-12-18T07:14:00;-4.40;86.60
3348;DHT22;1687;49.540;8.574;2022-12-18T07:16:26;-4.40;86.20
3348;DHT22;1687;49.540;8.574;2022-12-18T07:18:54;-4.40;86.30
3348;DHT22;1687;49.540;8.574;2022-12-18T07:21:21;-4.40;86.80
3348;DHT22;1687;49.540;8.574;2022-12-18T07:23:47;-4.30;87.10
3348;DHT22;1687;49.540;8.574;2022-12-18T07:26:14;-4.30;86.40
3348;DHT22;1687;49.540;8.574;2022-12-18T07:28:41;-4.30;86.10
3348;DHT22;1687;49.540;8.574;2022-12-18T07:31:09;-4.20;86.60
3348;DHT22;1687;49.540;8.574;2022-12-18T07:33:35;-4.30;86.30
3348;DHT22;1687;49.540;8.574;2022-12-18T07:36:01;-4.20;86.70
3348;DHT22;1687;49.540;8.574;2022-12-18T07:38:28;-4.20;86.60
3348;DHT22;1687;49.540;8.574;2022-12-18T07:40:54;-4.20;85.70
3348;DHT22;1687;49.540;8.574;2022-12-18T07:43:19;-4.30;85.80
3348;DHT22;1687;49.540;8.574;2022-12-18T07:45:45;-4.30;86.30
3348;DHT22;1687;49.540;8.574;2022-12-18T07:48:10;-4.20;86.80
3348;DHT22;1687;49.540;8.574;2022-12-18T07:50:37;-4.20;87.30
3348;DHT22;1687;49.540;8.574;2022-12-18T07:53:02;-4.10;86.60
3348;DHT22;1687;49.540;8.574;2022-12-18T07:55:31;-4.10;86.40
3348;DHT22;1687;49.540;8.574;2022-12-18T07:57:56;-4.20;85.60
3348;DHT22;1687;49.540;8.574;2022-12-18T08:00:22;-4.20;85.60
3348;DHT22;1687;49.540;8.574;2022-12-18T08:02:48;-4.30;85.10
3348;DHT22;1687;49.540;8.574;2022-12-18T08:05:13;-4.50;84.90
3348;DHT22;1687;49.540;8.574;2022-12-18T08:07:39;-4.50;85.80
3348;DHT22;1687;49.540;8.574;2022-12-18T08:10:05;-4.60;85.40
3348;DHT22;1687;49.540;8.574;2022-12-18T08:12:31;-4.60;85.40
3348;DHT22;1687;49.540;8.574;2022-12-18T08:14:57;-4.60;85.70
3348;DHT22;1687;49.540;8.574;2022-12-18T08:17:22;-4.60;85.70
3348;DHT22;1687;49.540;8.574;2022-12-18T08:19:48;-4.60;86.00
3348;DHT22;1687;49.540;8.574;2022-12-18T08:22:13;-4.60;85.50
3348;DHT22;1687;49.540;8.574;2022-12-18T08:24:39;-4.70;84.70
3348;DHT22;1687;49.540;8.574;2022-12-18T08:27:04;-4.90;84.40
3348;DHT22;1687;49.540;8.574;2022-12-18T08:29:30;-5.00;84.40
3348;DHT22;1687;49.540;8.574;2022-12-18T08:31:55;-5.00;85.60
3348;DHT22;1687;49.540;8.574;2022-12-18T08:34:21;-4.90;85.70
3348;DHT22;1687;49.540;8.574;2022-12-18T08:36:47;-4.90;85.50
3348;DHT22;1687;49.540;8.574;2022-12-18T08:39:12;-5.00;84.30
3348;DHT22;1687;49.540;8.574;2022-12-18T08:41:38;-5.10;84.70
3348;DHT22;1687;49.540;8.574;2022-12-18T08:44:03;-5.00;85.80
3348;DHT22;1687;49.540;8.574;2022-12-18T08:46:48;-4.90;85.70
3348;DHT22;1687;49.540;8.574;2022-12-18T08:49:13;-4.80;86.00
3348;DHT22;1687;49.540;8.574;2022-12-18T08:51:39;-4.60;86.60
3348;DHT22;1687;49.540;8.574;2022-12-18T08:54:06;-4.40;86.60
3348;DHT22;1687;49.540;8.574;2022-12-18T08:56:31;-4.30;86.10
3348;DHT22;1687;49.540;8.574;2022-12-18T08:58:57;-4.30;86.10
3348;DHT22;1687;49.540;8.574;2022-12-18T09:01:23;-4.20;86.20
3348;DHT22;1687;49.540;8.574;2022-12-18T09:03:49;-4.10;86.20
3348;DHT22;1687;49.540;8.574;2022-12-18T09:06:17;-4.10;86.10
3348;DHT22;1687;49.540;8.574;2022-12-18T09:08:43;-4.10;86.30
3348;DHT22;1687;49.540;8.574;2022-12-18T09:11:20;-4.00;86.10
3348;DHT22;1687;49.540;8.574;2022-12-18T09:13:46;-3.90;86.10
3348;DHT22;1687;49.540;8.574;2022-12-18T09:16:12;-3.90;85.90
3348;DHT22;1687;49.540;8.574;2022-12-18T09:18:38;-3.90;85.50
3348;DHT22;1687;49.540;8.574;2022-12-18T09:21:11;-3.90;85.30
3348;DHT22;1687;49.540;8.574;2022-12-18T09:23:36;-4.00;85.20
3348;DHT22;1687;49.540;8.574;2022-12-18T09:26:02;-3.90;85.80
3348;DHT22;1687;49.540;8.574;2022-12-18T09:28:28;-3.90;85.00
3348;DHT22;1687;49.540;8.574;2022-12-18T09:30:53;-3.90;85.70
3348;DHT22;1687;49.540;8.574;2022-12-18T09:33:19;-3.80;86.20
3348;DHT22;1687;49.540;8.574;2022-12-18T09:35:45;-3.80;84.80
3348;DHT22;1687;49.540;8.574;2022-12-18T09:38:14;-3.80;85.40
3348;DHT22;1687;49.540;8.574;2022-12-18T09:40:42;-3.70;84.80
3348;DHT22;1687;49.540;8.574;2022-12-18T09:43:56;-3.70;85.20
3348;DHT22;1687;49.540;8.574;2022-12-18T09:46:07;-3.70;85.50
3348;DHT22;1687;49.540;8.574;2022-12-18T09:48:41;-3.60;85.30
3348;DHT22;1687;49.540;8.574;2022-12-18T09:51:17;-3.50;85.60
3348;DHT22;1687;49.540;8.574;2022-12-18T09:53:47;-3.40;85.70
3348;DHT22;1687;49.540;8.574;2022-12-18T09:56:19;-3.40;84.90
3348;DHT22;1687;49.540;8.574;2022-12-18T09:58:57;-3.40;85.40
3348;DHT22;1687;49.540;8.574;2022-12-18T10:01:24;-3.40;84.40
3348;DHT22;1687;49.540;8.574;2022-12-18T10:03:50;-3.40;85.20
3348;DHT22;1687;49.540;8.574;2022-12-18T10:06:38;-3.30;86.10
3348;DHT22;1687;49.540;8.574;2022-12-18T10:14:47;-2.80;86.20
3348;DHT22;1687;49.540;8.574;2022-12-18T10:19:59;-2.40;86.30
3348;DHT22;1687;49.540;8.574;2022-12-18T10:25:49;-2.20;86.10
3348;DHT22;1687;49.540;8.574;2022-12-18T10:28:17;-2.20;86.10
3348;DHT22;1687;49.540;8.574;2022-12-18T10:30:44;-2.10;86.20
3348;DHT22;1687;49.540;8.574;2022-12-18T10:33:13;-1.90;86.50
3348;DHT22;1687;49.540;8.574;2022-12-18T10:35:41;-1.80;86.30
3348;DHT22;1687;49.540;8.574;2022-12-18T10:38:22;-1.80;85.60
3348;DHT22;1687;49.540;8.574;2022-12-18T10:43:21;-1.80;85.60
3348;DHT22;1687;49.540;8.574;2022-12-18T10:48:40;-1.60;86.60
3348;DHT22;1687;49.540;8.574;2022-12-18T10:51:24;-1.60;85.60
3348;DHT22;1687;49.540;8.574;2022-12-18T10:54:02;-1.60;85.80
3348;DHT22;1687;49.540;8.574;2022-12-18T10:56:30;-1.50;86.50
3348;DHT22;1687;49.540;8.574;2022-12-18T10:59:05;-1.40;86.20
3348;DHT22;1687;49.540;8.574;2022-12-18T11:01:55;-1.40;86.00
3348;DHT22;1687;49.540;8.574;2022-12-18T11:04:26;-1.40;85.60
3348;DHT22;1687;49.540;8.574;2022-12-18T11:07:06;-1.40;85.60
3348;DHT22;1687;49.540;8.574;2022-12-18T11:09:34;-1.40;84.70
3348;DHT22;1687;49.540;8.574;2022-12-18T11:17:32;-1.40;85.50
3348;DHT22;1687;49.540;8.574;2022-12-18T11:20:03;-1.30;86.00
3348;DHT22;1687;49.540;8.574;2022-12-18T11:22:31;-1.20;85.70
3348;DHT22;1687;49.540;8.574;2022-12-18T11:27:23;-1.20;85.00
3348;DHT22;1687;49.540;8.574;2022-12-18T11:29:50;-1.30;85.10
3348;DHT22;1687;49.540;8.574;2022-12-18T11:35:28;-1.30;84.40
3348;DHT22;1687;49.540;8.574;2022-12-18T11:38:02;-1.20;85.80
3348;DHT22;1687;49.540;8.574;2022-12-18T11:40:38;-1.20;85.10
3348;DHT22;1687;49.540;8.574;2022-12-18T11:43:27;-1.10;85.40
3348;DHT22;1687;49.540;8.574;2022-12-18T11:46:01;-1.00;85.60
3348;DHT22;1687;49.540;8.574;2022-12-18T11:48:32;-1.00;85.20
3348;DHT22;1687;49.540;8.574;2022-12-18T11:51:04;-0.90;85.30
3348;DHT22;1687;49.540;8.574;2022-12-18T11:53:33;-0.80;85.90
3348;DHT22;1687;49.540;8.574;2022-12-18T11:56:22;-0.60;86.20
3348;DHT22;1687;49.540;8.574;2022-12-18T12:07:09;-0.40;85.20
3348;DHT22;1687;49.540;8.574;2022-12-18T12:23:45;-0.30;85.50
3348;DHT22;1687;49.540;8.574;2022-12-18T12:34:23;-0.40;84.00
3348;DHT22;1687;49.540;8.574;2022-12-18T12:39:48;-0.40;84.00
3348;DHT22;1687;49.540;8.574;2022-12-18T12:42:31;-0.50;83.10
3348;DHT22;1687;49.540;8.574;2022-12-18T12:45:54;-0.60;83.60
3348;DHT22;1687;49.540;8.574;2022-12-18T12:48:31;-0.60;84.50
3348;DHT22;1687;49.540;8.574;2022-12-18T12:51:01;-0.40;84.90
3348;DHT22;1687;49.540;8.574;2022-12-18T12:53:32;-0.30;84.80
3348;DHT22;1687;49.540;8.574;2022-12-18T12:55:59;-0.20;84.80
3348;DHT22;1687;49.540;8.574;2022-12-18T12:58:49;-0.10;84.80
3348;DHT22;1687;49.540;8.574;2022-12-18T13:06:42;-0.10;84.60
3348;DHT22;1687;49.540;8.574;2022-12-18T13:09:09;0.00;84.70
3348;DHT22;1687;49.540;8.574;2022-12-18T13:11:36;0.00;84.90
3348;DHT22;1687;49.540;8.574;2022-12-18T13:14:30;0.00;84.40
3348;DHT22;1687;49.540;8.574;2022-12-18T13:19:51;0.10;84.30
3348;DHT22;1687;49.540;8.574;2022-12-18T13:22:39;0.10;84.30
3348;DHT22;1687;49.540;8.574;2022-12-18T13:28:06;0.10;83.60
3348;DHT22;1687;49.540;8.574;2022-12-18T13:41:02;-0.50;83.10
3348;DHT22;1687;49.540;8.574;2022-12-18T13:43:46;-0.50;82.90
3348;DHT22;1687;49.540;8.574;2022-12-18T13:46:28;-0.50;82.90
3348;DHT22;1687;49.540;8.574;2022-12-18T13:49:05;-0.60;82.30
3348;DHT22;1687;49.540;8.574;2022-12-18T13:51:46;-0.80;82.00
3348;DHT22;1687;49.540;8.574;2022-12-18T13:54:37;-0.80;82.80
3348;DHT22;1687;49.540;8.574;2022-12-18T13:57:23;-0.80;82.60
3348;DHT22;1687;49.540;8.574;2022-12-18T13:59:50;-0.90;82.30
3348;DHT22;1687;49.540;8.574;2022-12-18T14:02:19;-0.90;82.90
3348;DHT22;1687;49.540;8.574;2022-12-18T14:04:47;-0.80;82.90
3348;DHT22;1687;49.540;8.574;2022-12-18T14:07:22;-0.80;82.90
3348;DHT22;1687;49.540;8.574;2022-12-18T14:09:53;-0.90;82.30
3348;DHT22;1687;49.540;8.574;2022-12-18T14:12:26;-0.80;83.00
3348;DHT22;1687;49.540;8.574;2022-12-18T14:17:57;-0.70;83.40
3348;DHT22;1687;49.540;8.574;2022-12-18T14:20:25;-0.60;83.70
3348;DHT22;1687;49.540;8.574;2022-12-18T14:22:51;-0.60;83.30
3348;DHT22;1687;49.540;8.574;2022-12-18T14:25:25;-0.60;82.80
3348;DHT22;1687;49.540;8.574;2022-12-18T14:27:59;-0.70;82.90
3348;DHT22;1687;49.540;8.574;2022-12-18T14:33:05;-0.70;83.40
3348;DHT22;1687;49.540;8.574;2022-12-18T14:35:32;-0.60;83.70
3348;DHT22;1687;49.540;8.574;2022-12-18T14:40:42;-0.50;83.60
3348;DHT22;1687;49.540;8.574;2022-12-18T14:43:10;-0.50;83.50
3348;DHT22;1687;49.540;8.574;2022-12-18T14:45:38;-0.50;83.40
3348;DHT22;1687;49.540;8.574;2022-12-18T14:50:36;-0.60;82.70
3348;DHT22;1687;49.540;8.574;2022-12-18T14:53:02;-0.70;82.60
3348;DHT22;1687;49.540;8.574;2022-12-18T14:55:28;-0.80;82.40
3348;DHT22;1687;49.540;8.574;2022-12-18T14:57:56;-0.80;83.20
3348;DHT22;1687;49.540;8.574;2022-12-18T15:00:24;-0.80;83.20
3348;DHT22;1687;49.540;8.574;2022-12-18T15:02:55;-0.70;83.50
3348;DHT22;1687;49.540;8.574;2022-12-18T15:07:54;-0.70;83.30
3348;DHT22;1687;49.540;8.574;2022-12-18T15:10:25;-0.70;83.40
3348;DHT22;1687;49.540;8.574;2022-12-18T15:20:51;-0.80;83.20
3348;DHT22;1687;49.540;8.574;2022-12-18T15:23:27;-0.80;83.10
3348;DHT22;1687;49.540;8.574;2022-12-18T15:26:02;-0.90;82.90
3348;DHT22;1687;49.540;8.574;2022-12-18T15:31:05;-1.10;82.50
3348;DHT22;1687;49.540;8.574;2022-12-18T15:33:33;-1.20;82.70
3348;DHT22;1687;49.540;8.574;2022-12-18T15:36:21;-1.20;82.70
3348;DHT22;1687;49.540;8.574;2022-12-18T15:38:49;-1.30;82.20
3348;DHT22;1687;49.540;8.574;2022-12-18T15:41:19;-1.50;81.70
3348;DHT22;1687;49.540;8.574;2022-12-18T15:43:47;-1.50;82.30
3348;DHT22;1687;49.540;8.574;2022-12-18T15:46:18;-1.50;82.20
3348;DHT22;1687;49.540;8.574;2022-12-18T15:48:49;-1.50;82.40
3348;DHT22;1687;49.540;8.574;2022-12-18T15:51:20;-1.60;82.30
3348;DHT22;1687;49.540;8.574;2022-12-18T15:53:48;-1.50;82.70
3348;DHT22;1687;49.540;8.574;2022-12-18T15:56:15;-1.60;82.40
3348;DHT22;1687;49.540;8.574;2022-12-18T15:59:00;-1.60;82.40
3348;DHT22;1687;49.540;8.574;2022-12-18T16:01:27;-1.70;81.90
3348;DHT22;1687;49.540;8.574;2022-12-18T16:03:53;-1.70;81.80
3348;DHT22;1687;49.540;8.574;2022-12-18T16:06:20;-1.70;82.80
3348;DHT22;1687;49.540;8.574;2022-12-18T16:08:46;-1.70;82.40
3348;DHT22;1687;49.540;8.574;2022-12-18T16:13:45;-1.80;81.50
3348;DHT22;1687;49.540;8.574;2022-12-18T16:16:10;-1.90;82.00
3348;DHT22;1687;49.540;8.574;2022-12-18T16:18:36;-1.90;82.40
3348;DHT22;1687;49.540;8.574;2022-12-18T16:21:01;-1.90;81.90
3348;DHT22;1687;49.540;8.574;2022-12-18T16:23:27;-1.90;81.70
3348;DHT22;1687;49.540;8.574;2022-12-18T16:25:52;-1.90;82.00
3348;DHT22;1687;49.540;8.574;2022-12-18T16:28:18;-1.90;82.40
3348;DHT22;1687;49.540;8.574;2022-12-18T16:30:44;-1.90;82.40
3348;DHT22;1687;49.540;8.574;2022-12-18T16:33:10;-1.80;82.80
3348;DHT22;1687;49.540;8.574;2022-12-18T16:35:36;-1.90;81.80
3348;DHT22;1687;49.540;8.574;2022-12-18T16:38:02;-1.90;82.00
3348;DHT22;1687;49.540;8.574;2022-12-18T16:40:28;-2.00;81.60
3348;DHT22;1687;49.540;8.574;2022-12-18T16:42:56;-2.00;81.90
3348;DHT22;1687;49.540;8.574;2022-12-18T16:45:22;-1.90;82.90
3348;DHT22;1687;49.540;8.574;2022-12-18T16:47:47;-1.90;82.40
3348;DHT22;1687;49.540;8.574;2022-12-18T16:50:13;-1.90;81.90
3348;DHT22;1687;49.540;8.574;2022-12-18T16:52:39;-1.90;82.30
3348;DHT22;1687;49.540;8.574;2022-12-18T16:55:05;-1.90;82.30
3348;DHT22;1687;49.540;8.574;2022-12-18T16:57:30;-2.00;81.90
3348;DHT22;1687;49.540;8.574;2022-12-18T16:59:56;-2.00;82.10
3348;DHT22;1687;49.540;8.574;2022-12-18T17:02:24;-1.90;82.60
3348;DHT22;1687;49.540;8.574;2022-12-18T17:04:56;-1.80;83.10
3348;DHT22;1687;49.540;8.574;2022-12-18T17:07:21;-1.70;83.30
3348;DHT22;1687;49.540;8.574;2022-12-18T17:09:47;-1.80;82.50
3348;DHT22;1687;49.540;8.574;2022-12-18T17:12:14;-1.80;82.00
3348;DHT22;1687;49.540;8.574;2022-12-18T17:14:40;-1.90;81.60
3348;DHT22;1687;49.540;8.574;2022-12-18T17:17:05;-2.00;81.80
3348;DHT22;1687;49.540;8.574;2022-12-18T17:19:31;-2.00;81.90
3348;DHT22;1687;49.540;8.574;2022-12-18T17:21:58;-2.00;82.10
3348;DHT22;1687;49.540;8.574;2022-12-18T17:24:24;-2.00;82.20
3348;DHT22;1687;49.540;8.574;2022-12-18T17:26:50;-2.00;82.40
3348;DHT22;1687;49.540;8.574;2022-12-18T17:29:18;-2.00;82.50
3348;DHT22;1687;49.540;8.574;2022-12-18T17:31:45;-1.90;83.10
3348;DHT22;1687;49.540;8.574;2022-12-18T17:34:11;-1.90;82.70
3348;DHT22;1687;49.540;8.574;2022-12-18T17:36:37;-1.90;83.20
3348;DHT22;1687;49.540;8.574;2022-12-18T17:39:03;-1.90;82.90
3348;DHT22;1687;49.540;8.574;2022-12-18T17:41:30;-1.80;83.30
3348;DHT22;1687;49.540;8.574;2022-12-18T17:43:58;-1.70;83.40
3348;DHT22;1687;49.540;8.574;2022-12-18T17:46:25;-1.70;83.30
3348;DHT22;1687;49.540;8.574;2022-12-18T17:48:53;-1.80;82.10
3348;DHT22;1687;49.540;8.574;2022-12-18T17:51:19;-1.80;82.70
3348;DHT22;1687;49.540;8.574;2022-12-18T17:53:45;-1.90;82.60
3348;DHT22;1687;49.540;8.574;2022-12-18T17:56:15;-1.90;82.40
3348;DHT22;1687;49.540;8.574;2022-12-18T17:58:41;-2.00;82.10
3348;DHT22;1687;49.540;8.574;2022-12-18T18:01:07;-1.90;82.80
3348;DHT22;1687;49.540;8.574;2022-12-18T18:03:33;-2.10;81.80
3348;DHT22;1687;49.540;8.574;2022-12-18T18:06:03;-2.10;82.50
3348;DHT22;1687;49.540;8.574;2022-12-18T18:08:29;-2.00;83.00
3348;DHT22;1687;49.540;8.574;2022-12-18T18:10:56;-1.90;83.40
3348;DHT22;1687;49.540;8.574;2022-12-18T18:13:42;-1.80;83.10
3348;DHT22;1687;49.540;8.574;2022-12-18T18:19:00;-1.80;83.20
3348;DHT22;1687;49.540;8.574;2022-12-18T18:21:26;-1.80;82.80
3348;DHT22;1687;49.540;8.574;2022-12-18T18:23:52;-1.80;82.70
3348;DHT22;1687;49.540;8.574;2022-12-18T18:26:17;-1.80;83.00
3348;DHT22;1687;49.540;8.574;2022-12-18T18:28:43;-1.90;82.40
3348;DHT22;1687;49.540;8.574;2022-12-18T18:31:09;-1.90;82.30